sensor_id;sensor_type;location;lat;lon;timestamp;P1;durP1;ratioP1;P2;durP2;ratioP2
72379;SDS011;60354;47.798;12.472;2022-10-23T00:01:25;0.60;;;0.60;;
72379;SDS011;60354;47.798;12.472;2022-10-23T00:03:57;0.70;;;0.70;;
72379;SDS011;60354;47.798;12.472;2022-10-23T00:06:25;0.60;;;0.60;;
72379;SDS011;60354;47.798;12.472;2022-10-23T00:08:51;1.00;;;0.80;;
72379;SDS011;60354;47.798;12.472;2022-10-23T00:11:18;1.50;;;0.73;;
72379;SDS011;60354;47.798;12.472;2022-10-23T00:13:47;0.60;;;0.60;;
72379;SDS011;60354;47.798;12.472;2022-10-23T00:16:13;0.55;;;0.52;;
72379;SDS011;60354;47.798;12.472;2022-10-23T00:18:39;2.13;;;0.70;;
72379;SDS011;60354;47.798;12.472;2022-10-23T00:21:05;2.88;;;0.88;;
72379;SDS011;60354;47.798;12.472;2022-10-23T00:23:33;0.70;;;0.70;;
72379;SDS011;60354;47.798;12.472;2022-10-23T00:25:58;1.65;;;0.70;;
72379;SDS011;60354;47.798;12.472;2022-10-23T00:28:24;0.90;;;0.73;;
72379;SDS011;60354;47.798;12.472;2022-10-23T00:30:51;2.15;;;0.70;;
72379;SDS011;60354;47.798;12.472;2022-10-23T00:33:16;1.15;;;0.70;;
72379;SDS011;60354;47.798;12.472;2022-10-23T00:35:42;2.10;;;0.70;;
72379;SDS011;60354;47.798;12.472;2022-10-23T00:38:08;1.48;;;0.70;;
72379;SDS011;60354;47.798;12.472;2022-10-23T00:40:35;1.33;;;0.70;;
72379;SDS011;60354;47.798;12.472;2022-10-23T00:43:02;0.80;;;0.60;;
72379;SDS011;60354;47.798;12.472;2022-10-23T00:45:28;1.75;;;0.77;;
72379;SDS011;60354;47.798;12.472;2022-10-23T00:48:00;1.77;;;0.60;;
72379;SDS011;60354;47.798;12.472;2022-10-23T00:50:29;0.65;;;0.65;;
72379;SDS011;60354;47.798;12.472;2022-10-23T00:52:56;1.33;;;0.75;;
72379;SDS011;60354;47.798;12.472;2022-10-23T00:55:25;1.98;;;0.88;;
72379;SDS011;60354;47.798;12.472;2022-10-23T00:57:51;1.58;;;0.70;;
72379;SDS011;60354;47.798;12.472;2022-10-23T01:00:20;1.23;;;0.70;;
72379;SDS011;60354;47.798;12.472;2022-10-23T01:03:04;2.80;;;0.82;;
72379;SDS011;60354;47.798;12.472;2022-10-23T01:05:30;1.23;;;0.65;;
72379;SDS011;60354;47.798;12.472;2022-10-23T01:08:08;2.40;;;0.73;;
72379;SDS011;60354;47.798;12.472;2022-10-23T01:10:46;1.27;;;0.93;;
72379;SDS011;60354;47.798;12.472;2022-10-23T01:13:52;1.27;;;0.70;;
72379;SDS011;60354;47.798;12.472;2022-10-23T01:19:19;0.70;;;0.55;;
72379;SDS011;60354;47.798;12.472;2022-10-23T01:25:17;1.15;;;0.60;;
72379;SDS011;60354;47.798;12.472;2022-10-23T01:27:56;1.75;;;0.82;;
72379;SDS011;60354;47.798;12.472;2022-10-23T01:30:27;0.80;;;0.65;;
72379;SDS011;60354;47.798;12.472;2022-10-23T01:32:59;1.17;;;0.70;;
72379;SDS011;60354;47.798;12.472;2022-10-23T01:35:40;0.77;;;0.60;;
72379;SDS011;60354;47.798;12.472;2022-10-23T01:40:47;0.90;;;0.60;;
72379;SDS011;60354;47.798;12.472;2022-10-23T01:43:23;0.75;;;0.60;;
72379;SDS011;60354;47.798;12.472;2022-10-23T01:45:58;1.25;;;0.63;;
72379;SDS011;60354;47.798;12.472;2022-10-23T01:48:28;0.65;;;0.60;;
72379;SDS011;60354;47.798;12.472;2022-10-23T01:50:56;1.33;;;0.70;;
72379;SDS011;60354;47.798;12.472;2022-10-23T01:53:26;0.73;;;0.70;;
72379;SDS011;60354;47.798;12.472;2022-10-23T01:55:55;0.90;;;0.57;;
72379;SDS011;60354;47.798;12.472;2022-10-23T01:58:23;2.60;;;0.70;;
72379;SDS011;60354;47.798;12.472;2022-10-23T02:00:52;3.13;;;0.60;;
72379;SDS011;60354;47.798;12.472;2022-10-23T02:03:23;0.57;;;0.50;;
72379;SDS011;60354;47.798;12.472;2022-10-23T02:05:51;0.98;;;0.50;;
72379;SDS011;60354;47.798;12.472;2022-10-23T02:08:16;1.52;;;0.60;;
72379;SDS011;60354;47.798;12.472;2022-10-23T02:13:18;2.42;;;0.52;;
72379;SDS011;60354;47.798;12.472;2022-10-23T02:16:41;1.23;;;0.68;;
72379;SDS011;60354;47.798;12.472;2022-10-23T02:19:24;1.75;;;0.63;;
72379;SDS011;60354;47.798;12.472;2022-10-23T02:22:20;1.20;;;0.50;;
72379;SDS011;60354;47.798;12.472;2022-10-23T02:25:04;2.53;;;0.80;;
72379;SDS011;60354;47.798;12.472;2022-10-23T02:27:41;0.68;;;0.60;;
72379;SDS011;60354;47.798;12.472;2022-10-23T02:30:12;1.63;;;0.70;;
72379;SDS011;60354;47.798;12.472;2022-10-23T02:32:48;1.42;;;0.80;;
72379;SDS011;60354;47.798;12.472;2022-10-23T02:35:19;1.30;;;0.87;;
72379;SDS011;60354;47.798;12.472;2022-10-23T02:37:52;0.68;;;0.60;;
72379;SDS011;60354;47.798;12.472;2022-10-23T02:40:23;1.38;;;0.68;;
72379;SDS011;60354;47.798;12.472;2022-10-23T02:43:27;1.02;;;0.70;;
72379;SDS011;60354;47.798;12.472;2022-10-23T02:48:37;2.35;;;0.80;;
72379;SDS011;60354;47.798;12.472;2022-10-23T02:51:20;0.95;;;0.60;;
72379;SDS011;60354;47.798;12.472;2022-10-23T02:54:01;1.80;;;0.60;;
72379;SDS011;60354;47.798;12.472;2022-10-23T02:56:39;1.65;;;0.68;;
72379;SDS011;60354;47.798;12.472;2022-10-23T03:02:35;0.57;;;0.57;;
72379;SDS011;60354;47.798;12.472;2022-10-23T03:04:57;2.53;;;0.60;;
72379;SDS011;60354;47.798;12.472;2022-10-23T03:07:25;1.13;;;0.63;;
72379;SDS011;60354;47.798;12.472;2022-10-23T03:09:57;1.83;;;1.00;;
72379;SDS011;60354;47.798;12.472;2022-10-23T03:12:23;1.45;;;0.80;;
72379;SDS011;60354;47.798;12.472;2022-10-23T03:14:48;4.40;;;0.63;;
72379;SDS011;60354;47.798;12.472;2022-10-23T03:17:14;0.98;;;0.60;;
72379;SDS011;60354;47.798;12.472;2022-10-23T03:19:40;1.13;;;0.60;;
72379;SDS011;60354;47.798;12.472;2022-10-23T03:22:05;3.13;;;0.60;;
72379;SDS011;60354;47.798;12.472;2022-10-23T03:24:30;0.65;;;0.60;;
72379;SDS011;60354;47.798;12.472;2022-10-23T03:26:56;0.95;;;0.60;;
72379;SDS011;60354;47.798;12.472;2022-10-23T03:29:28;0.50;;;0.50;;
72379;SDS011;60354;47.798;12.472;2022-10-23T03:31:54;0.75;;;0.65;;
72379;SDS011;60354;47.798;12.472;2022-10-23T03:34:20;0.73;;;0.50;;
72379;SDS011;60354;47.798;12.472;2022-10-23T03:36:45;0.63;;;0.60;;
72379;SDS011;60354;47.798;12.472;2022-10-23T03:39:12;1.00;;;0.45;;
72379;SDS011;60354;47.798;12.472;2022-10-23T03:41:40;3.13;;;1.10;;
72379;SDS011;60354;47.798;12.472;2022-10-23T03:44:06;0.85;;;0.82;;
72379;SDS011;60354;47.798;12.472;2022-10-23T03:46:31;0.63;;;0.60;;
72379;SDS011;60354;47.798;12.472;2022-10-23T03:48:57;0.70;;;0.70;;
72379;SDS011;60354;47.798;12.472;2022-10-23T03:51:23;1.00;;;0.77;;
72379;SDS011;60354;47.798;12.472;2022-10-23T03:53:49;2.13;;;0.70;;
72379;SDS011;60354;47.798;12.472;2022-10-23T03:56:15;0.60;;;0.60;;
72379;SDS011;60354;47.798;12.472;2022-10-23T03:58:40;0.80;;;0.80;;
72379;SDS011;60354;47.798;12.472;2022-10-23T04:01:06;1.00;;;0.80;;
72379;SDS011;60354;47.798;12.472;2022-10-23T04:03:31;3.67;;;0.65;;
72379;SDS011;60354;47.798;12.472;2022-10-23T04:05:57;0.60;;;0.55;;
72379;SDS011;60354;47.798;12.472;2022-10-23T04:08:22;0.85;;;0.60;;
72379;SDS011;60354;47.798;12.472;2022-10-23T04:10:52;3.33;;;0.70;;
72379;SDS011;60354;47.798;12.472;2022-10-23T04:13:33;2.72;;;1.13;;
72379;SDS011;60354;47.798;12.472;2022-10-23T04:15:59;3.53;;;0.63;;
72379;SDS011;60354;47.798;12.472;2022-10-23T04:18:27;0.70;;;0.60;;
72379;SDS011;60354;47.798;12.472;2022-10-23T04:20:57;0.98;;;0.50;;
72379;SDS011;60354;47.798;12.472;2022-10-23T04:23:23;2.13;;;0.93;;
72379;SDS011;60354;47.798;12.472;2022-10-23T04:25:54;1.25;;;0.60;;
72379;SDS011;60354;47.798;12.472;2022-10-23T04:28:24;1.08;;;0.60;;
72379;SDS011;60354;47.798;12.472;2022-10-23T04:30:51;2.20;;;0.63;;
72379;SDS011;60354;47.798;12.472;2022-10-23T04:33:19;2.13;;;0.70;;
72379;SDS011;60354;47.798;12.472;2022-10-23T04:35:48;1.58;;;1.10;;
72379;SDS011;60354;47.798;12.472;2022-10-23T04:38:15;1.20;;;0.90;;
72379;SDS011;60354;47.798;12.472;2022-10-23T04:40:41;1.73;;;1.08;;
72379;SDS011;60354;47.798;12.472;2022-10-23T04:43:07;2.65;;;1.42;;
72379;SDS011;60354;47.798;12.472;2022-10-23T04:45:36;1.88;;;1.20;;
72379;SDS011;60354;47.798;12.472;2022-10-23T04:48:02;1.42;;;1.00;;
72379;SDS011;60354;47.798;12.472;2022-10-23T04:50:40;5.57;;;1.90;;
72379;SDS011;60354;47.798;12.472;2022-10-23T04:53:27;8.38;;;4.18;;
72379;SDS011;60354;47.798;12.472;2022-10-23T04:56:13;4.20;;;2.65;;
72379;SDS011;60354;47.798;12.472;2022-10-23T04:58:58;3.45;;;2.13;;
72379;SDS011;60354;47.798;12.472;2022-10-23T05:01:23;1.70;;;1.00;;
72379;SDS011;60354;47.798;12.472;2022-10-23T05:03:49;2.97;;;0.70;;
72379;SDS011;60354;47.798;12.472;2022-10-23T05:06:23;3.58;;;0.90;;
72379;SDS011;60354;47.798;12.472;2022-10-23T05:09:29;0.60;;;0.60;;
72379;SDS011;60354;47.798;12.472;2022-10-23T05:12:08;0.60;;;0.60;;
72379;SDS011;60354;47.798;12.472;2022-10-23T05:14:39;1.10;;;0.90;;
72379;SDS011;60354;47.798;12.472;2022-10-23T05:17:31;0.90;;;0.80;;
72379;SDS011;60354;47.798;12.472;2022-10-23T05:20:03;1.35;;;0.60;;
72379;SDS011;60354;47.798;12.472;2022-10-23T05:22:38;2.03;;;0.70;;
72379;SDS011;60354;47.798;12.472;2022-10-23T05:25:09;0.98;;;0.47;;
72379;SDS011;60354;47.798;12.472;2022-10-23T05:30:12;0.52;;;0.50;;
72379;SDS011;60354;47.798;12.472;2022-10-23T05:32:38;0.50;;;0.50;;
72379;SDS011;60354;47.798;12.472;2022-10-23T05:35:06;0.88;;;0.68;;
72379;SDS011;60354;47.798;12.472;2022-10-23T05:37:36;0.70;;;0.55;;
72379;SDS011;60354;47.798;12.472;2022-10-23T05:40:11;3.05;;;0.60;;
72379;SDS011;60354;47.798;12.472;2022-10-23T05:42:41;1.15;;;0.73;;
72379;SDS011;60354;47.798;12.472;2022-10-23T05:45:09;1.55;;;0.70;;
72379;SDS011;60354;47.798;12.472;2022-10-23T05:47:54;0.55;;;0.40;;
72379;SDS011;60354;47.798;12.472;2022-10-23T05:50:54;0.47;;;0.47;;
72379;SDS011;60354;47.798;12.472;2022-10-23T05:53:34;0.45;;;0.45;;
72379;SDS011;60354;47.798;12.472;2022-10-23T05:56:26;3.97;;;0.68;;
72379;SDS011;60354;47.798;12.472;2022-10-23T05:58:59;3.72;;;2.20;;
72379;SDS011;60354;47.798;12.472;2022-10-23T06:01:44;2.30;;;0.90;;
72379;SDS011;60354;47.798;12.472;2022-10-23T06:04:14;0.50;;;0.50;;
72379;SDS011;60354;47.798;12.472;2022-10-23T06:06:58;2.17;;;0.63;;
72379;SDS011;60354;47.798;12.472;2022-10-23T06:09:23;1.15;;;0.70;;
72379;SDS011;60354;47.798;12.472;2022-10-23T06:11:54;0.63;;;0.63;;
72379;SDS011;60354;47.798;12.472;2022-10-23T06:14:21;1.58;;;0.40;;
72379;SDS011;60354;47.798;12.472;2022-10-23T06:16:49;1.30;;;0.82;;
72379;SDS011;60354;47.798;12.472;2022-10-23T06:19:15;0.93;;;0.82;;
72379;SDS011;60354;47.798;12.472;2022-10-23T06:21:41;1.02;;;0.80;;
72379;SDS011;60354;47.798;12.472;2022-10-23T06:24:10;0.70;;;0.70;;
72379;SDS011;60354;47.798;12.472;2022-10-23T06:26:43;2.22;;;0.80;;
72379;SDS011;60354;47.798;12.472;2022-10-23T06:29:14;0.82;;;0.70;;
72379;SDS011;60354;47.798;12.472;2022-10-23T06:31:41;1.75;;;0.90;;
72379;SDS011;60354;47.798;12.472;2022-10-23T06:34:07;1.80;;;1.02;;
72379;SDS011;60354;47.798;12.472;2022-10-23T06:36:35;1.25;;;0.77;;
72379;SDS011;60354;47.798;12.472;2022-10-23T06:39:16;0.90;;;0.75;;
72379;SDS011;60354;47.798;12.472;2022-10-23T06:41:57;1.10;;;0.70;;
72379;SDS011;60354;47.798;12.472;2022-10-23T06:44:52;5.40;;;0.90;;
72379;SDS011;60354;47.798;12.472;2022-10-23T06:47:36;2.45;;;1.00;;
72379;SDS011;60354;47.798;12.472;2022-10-23T06:52:45;0.77;;;0.70;;
72379;SDS011;60354;47.798;12.472;2022-10-23T06:55:13;1.92;;;0.63;;
72379;SDS011;60354;47.798;12.472;2022-10-23T06:57:41;1.70;;;0.60;;
72379;SDS011;60354;47.798;12.472;2022-10-23T07:00:07;0.77;;;0.40;;
72379;SDS011;60354;47.798;12.472;2022-10-23T07:02:41;1.55;;;0.70;;
72379;SDS011;60354;47.798;12.472;2022-10-23T07:05:07;1.25;;;0.70;;
72379;SDS011;60354;47.798;12.472;2022-10-23T07:07:33;2.42;;;0.60;;
72379;SDS011;60354;47.798;12.472;2022-10-23T07:09:58;0.60;;;0.50;;
72379;SDS011;60354;47.798;12.472;2022-10-23T07:12:33;0.98;;;0.60;;
72379;SDS011;60354;47.798;12.472;2022-10-23T07:15:19;0.80;;;0.60;;
72379;SDS011;60354;47.798;12.472;2022-10-23T07:17:44;0.55;;;0.50;;
72379;SDS011;60354;47.798;12.472;2022-10-23T07:20:10;0.60;;;0.50;;
72379;SDS011;60354;47.798;12.472;2022-10-23T07:22:36;0.90;;;0.60;;
72379;SDS011;60354;47.798;12.472;2022-10-23T07:25:09;1.13;;;0.60;;
72379;SDS011;60354;47.798;12.472;2022-10-23T07:27:37;1.23;;;0.70;;
72379;SDS011;60354;47.798;12.472;2022-10-23T07:30:05;0.73;;;0.70;;
72379;SDS011;60354;47.798;12.472;2022-10-23T07:32:37;1.30;;;1.00;;
72379;SDS011;60354;47.798;12.472;2022-10-23T07:35:32;0.82;;;0.73;;
72379;SDS011;60354;47.798;12.472;2022-10-23T07:38:10;1.08;;;0.60;;
72379;SDS011;60354;47.798;12.472;2022-10-23T07:40:41;2.03;;;0.55;;
72379;SDS011;60354;47.798;12.472;2022-10-23T07:43:09;2.75;;;0.60;;
72379;SDS011;60354;47.798;12.472;2022-10-23T07:45:34;1.05;;;0.50;;
72379;SDS011;60354;47.798;12.472;2022-10-23T07:48:07;0.47;;;0.47;;
72379;SDS011;60354;47.798;12.472;2022-10-23T07:50:52;1.27;;;0.60;;
72379;SDS011;60354;47.798;12.472;2022-10-23T07:53:22;0.70;;;0.63;;
72379;SDS011;60354;47.798;12.472;2022-10-23T07:55:56;3.10;;;0.60;;
72379;SDS011;60354;47.798;12.472;2022-10-23T07:58:24;0.60;;;0.55;;
72379;SDS011;60354;47.798;12.472;2022-10-23T08:01:05;0.90;;;0.50;;
72379;SDS011;60354;47.798;12.472;2022-10-23T08:03:40;0.73;;;0.68;;
72379;SDS011;60354;47.798;12.472;2022-10-23T08:06:05;2.55;;;0.60;;
72379;SDS011;60354;47.798;12.472;2022-10-23T08:08:32;0.93;;;0.70;;
72379;SDS011;60354;47.798;12.472;2022-10-23T08:11:01;2.08;;;0.60;;
72379;SDS011;60354;47.798;12.472;2022-10-23T08:13:32;1.55;;;0.65;;
72379;SDS011;60354;47.798;12.472;2022-10-23T08:16:02;2.05;;;0.80;;
72379;SDS011;60354;47.798;12.472;2022-10-23T08:19:00;1.83;;;0.60;;
72379;SDS011;60354;47.798;12.472;2022-10-23T08:21:27;0.60;;;0.60;;
72379;SDS011;60354;47.798;12.472;2022-10-23T08:23:53;0.82;;;0.50;;
72379;SDS011;60354;47.798;12.472;2022-10-23T08:26:21;1.23;;;0.63;;
72379;SDS011;60354;47.798;12.472;2022-10-23T08:28:47;1.13;;;0.60;;
72379;SDS011;60354;47.798;12.472;2022-10-23T08:31:13;0.82;;;0.60;;
72379;SDS011;60354;47.798;12.472;2022-10-23T08:33:51;0.40;;;0.40;;
72379;SDS011;60354;47.798;12.472;2022-10-23T08:39:06;1.45;;;0.68;;
72379;SDS011;60354;47.798;12.472;2022-10-23T08:41:41;1.20;;;0.60;;
72379;SDS011;60354;47.798;12.472;2022-10-23T08:47:43;0.95;;;0.60;;
72379;SDS011;60354;47.798;12.472;2022-10-23T08:50:35;0.45;;;0.40;;
72379;SDS011;60354;47.798;12.472;2022-10-23T08:53:14;0.98;;;0.55;;
72379;SDS011;60354;47.798;12.472;2022-10-23T08:56:10;0.52;;;0.50;;
72379;SDS011;60354;47.798;12.472;2022-10-23T09:02:01;0.60;;;0.60;;
72379;SDS011;60354;47.798;12.472;2022-10-23T09:04:35;0.65;;;0.45;;
72379;SDS011;60354;47.798;12.472;2022-10-23T09:07:07;0.80;;;0.50;;
72379;SDS011;60354;47.798;12.472;2022-10-23T09:12:28;0.93;;;0.50;;
72379;SDS011;60354;47.798;12.472;2022-10-23T09:17:26;1.33;;;0.50;;
72379;SDS011;60354;47.798;12.472;2022-10-23T09:22:56;1.45;;;0.60;;
72379;SDS011;60354;47.798;12.472;2022-10-23T09:25:26;2.67;;;0.60;;
72379;SDS011;60354;47.798;12.472;2022-10-23T09:27:54;0.43;;;0.40;;
72379;SDS011;60354;47.798;12.472;2022-10-23T09:32:56;1.77;;;0.60;;
72379;SDS011;60354;47.798;12.472;2022-10-23T09:35:24;0.90;;;0.60;;
72379;SDS011;60354;47.798;12.472;2022-10-23T09:37:51;0.68;;;0.47;;
72379;SDS011;60354;47.798;12.472;2022-10-23T09:40:18;1.85;;;0.60;;
72379;SDS011;60354;47.798;12.472;2022-10-23T09:43:00;0.47;;;0.40;;
72379;SDS011;60354;47.798;12.472;2022-10-23T09:45:37;0.75;;;0.47;;
72379;SDS011;60354;47.798;12.472;2022-10-23T09:48:12;1.17;;;0.70;;
72379;SDS011;60354;47.798;12.472;2022-10-23T09:53:33;1.45;;;0.77;;
72379;SDS011;60354;47.798;12.472;2022-10-23T09:56:01;0.57;;;0.57;;
72379;SDS011;60354;47.798;12.472;2022-10-23T10:01:26;1.40;;;0.50;;
72379;SDS011;60354;47.798;12.472;2022-10-23T10:04:03;2.65;;;1.20;;
72379;SDS011;60354;47.798;12.472;2022-10-23T10:06:30;2.03;;;0.70;;
72379;SDS011;60354;47.798;12.472;2022-10-23T10:09:18;1.15;;;0.70;;
72379;SDS011;60354;47.798;12.472;2022-10-23T10:11:43;0.80;;;0.60;;
72379;SDS011;60354;47.798;12.472;2022-10-23T10:17:01;4.72;;;2.03;;
72379;SDS011;60354;47.798;12.472;2022-10-23T10:28:08;1.35;;;0.50;;
72379;SDS011;60354;47.798;12.472;2022-10-23T10:39:41;0.95;;;0.70;;
72379;SDS011;60354;47.798;12.472;2022-10-23T10:50:24;0.55;;;0.50;;
72379;SDS011;60354;47.798;12.472;2022-10-23T10:55:58;0.98;;;0.60;;
72379;SDS011;60354;47.798;12.472;2022-10-23T10:58:29;2.00;;;0.40;;
72379;SDS011;60354;47.798;12.472;2022-10-23T11:01:00;0.77;;;0.47;;
72379;SDS011;60354;47.798;12.472;2022-10-23T11:03:47;0.63;;;0.50;;
72379;SDS011;60354;47.798;12.472;2022-10-23T11:06:19;2.85;;;0.38;;
72379;SDS011;60354;47.798;12.472;2022-10-23T11:08:48;2.08;;;0.70;;
72379;SDS011;60354;47.798;12.472;2022-10-23T11:11:23;1.40;;;0.50;;
72379;SDS011;60354;47.798;12.472;2022-10-23T11:13:58;0.45;;;0.45;;
72379;SDS011;60354;47.798;12.472;2022-10-23T11:19:11;1.98;;;0.70;;
72379;SDS011;60354;47.798;12.472;2022-10-23T11:26:42;1.48;;;0.30;;
72379;SDS011;60354;47.798;12.472;2022-10-23T11:29:18;1.65;;;0.47;;
72379;SDS011;60354;47.798;12.472;2022-10-23T11:32:10;1.52;;;0.70;;
72379;SDS011;60354;47.798;12.472;2022-10-23T11:37:22;0.50;;;0.50;;
72379;SDS011;60354;47.798;12.472;2022-10-23T11:39:57;1.50;;;0.60;;
72379;SDS011;60354;47.798;12.472;2022-10-23T11:42:28;1.75;;;0.30;;
72379;SDS011;60354;47.798;12.472;2022-10-23T11:53:22;2.75;;;0.60;;
72379;SDS011;60354;47.798;12.472;2022-10-23T11:55:57;1.25;;;0.52;;
72379;SDS011;60354;47.798;12.472;2022-10-23T12:06:46;0.40;;;0.40;;
72379;SDS011;60354;47.798;12.472;2022-10-23T12:14:39;1.15;;;0.50;;
72379;SDS011;60354;47.798;12.472;2022-10-23T12:19:50;0.38;;;0.38;;
72379;SDS011;60354;47.798;12.472;2022-10-23T12:22:24;0.82;;;0.52;;
72379;SDS011;60354;47.798;12.472;2022-10-23T12:36:03;1.13;;;0.60;;
72379;SDS011;60354;47.798;12.472;2022-10-23T12:38:31;0.80;;;0.60;;
72379;SDS011;60354;47.798;12.472;2022-10-23T12:41:14;1.15;;;0.50;;
72379;SDS011;60354;47.798;12.472;2022-10-23T12:43:52;1.27;;;0.30;;
72379;SDS011;60354;47.798;12.472;2022-10-23T12:49:21;2.38;;;0.80;;
72379;SDS011;60354;47.798;12.472;2022-10-23T12:51:54;2.42;;;0.85;;
72379;SDS011;60354;47.798;12.472;2022-10-23T12:54:23;2.13;;;1.00;;
72379;SDS011;60354;47.798;12.472;2022-10-23T12:56:49;2.70;;;0.50;;
72379;SDS011;60354;47.798;12.472;2022-10-23T12:59:18;3.22;;;0.60;;
72379;SDS011;60354;47.798;12.472;2022-10-23T13:01:44;0.90;;;0.60;;
72379;SDS011;60354;47.798;12.472;2022-10-23T13:06:48;0.63;;;0.40;;
72379;SDS011;60354;47.798;12.472;2022-10-23T13:09:34;1.40;;;0.40;;
72379;SDS011;60354;47.798;12.472;2022-10-23T13:12:26;4.22;;;0.60;;
72379;SDS011;60354;47.798;12.472;2022-10-23T13:18:01;0.60;;;0.50;;
72379;SDS011;60354;47.798;12.472;2022-10-23T13:20:32;3.20;;;0.40;;
72379;SDS011;60354;47.798;12.472;2022-10-23T13:25:34;0.95;;;0.50;;
72379;SDS011;60354;47.798;12.472;2022-10-23T13:30:44;0.95;;;0.70;;
72379;SDS011;60354;47.798;12.472;2022-10-23T13:33:25;1.13;;;0.60;;
72379;SDS011;60354;47.798;12.472;2022-10-23T13:36:03;0.50;;;0.50;;
72379;SDS011;60354;47.798;12.472;2022-10-23T13:38:39;1.85;;;0.70;;
72379;SDS011;60354;47.798;12.472;2022-10-23T13:41:10;1.83;;;0.50;;
72379;SDS011;60354;47.798;12.472;2022-10-23T13:43:39;2.30;;;0.60;;
72379;SDS011;60354;47.798;12.472;2022-10-23T13:46:05;2.42;;;0.50;;
72379;SDS011;60354;47.798;12.472;2022-10-23T13:48:36;0.95;;;0.80;;
72379;SDS011;60354;47.798;12.472;2022-10-23T13:51:09;1.20;;;0.70;;
72379;SDS011;60354;47.798;12.472;2022-10-23T13:53:36;1.95;;;0.60;;
72379;SDS011;60354;47.798;12.472;2022-10-23T13:56:01;0.68;;;0.50;;
72379;SDS011;60354;47.798;12.472;2022-10-23T13:58:27;3.08;;;0.70;;
72379;SDS011;60354;47.798;12.472;2022-10-23T14:00:52;0.40;;;0.40;;
72379;SDS011;60354;47.798;12.472;2022-10-23T14:03:18;2.92;;;0.60;;
72379;SDS011;60354;47.798;12.472;2022-10-23T14:05:48;0.40;;;0.40;;
72379;SDS011;60354;47.798;12.472;2022-10-23T14:08:17;1.52;;;0.50;;
72379;SDS011;60354;47.798;12.472;2022-10-23T14:10:43;1.17;;;0.60;;
72379;SDS011;60354;47.798;12.472;2022-10-23T14:13:09;2.60;;;0.55;;
72379;SDS011;60354;47.798;12.472;2022-10-23T14:15:34;0.80;;;0.60;;
72379;SDS011;60354;47.798;12.472;2022-10-23T14:18:00;1.05;;;0.70;;
72379;SDS011;60354;47.798;12.472;2022-10-23T14:20:25;0.68;;;0.52;;
72379;SDS011;60354;47.798;12.472;2022-10-23T14:22:51;1.95;;;0.63;;
72379;SDS011;60354;47.798;12.472;2022-10-23T14:25:16;1.85;;;0.65;;
72379;SDS011;60354;47.798;12.472;2022-10-23T14:27:43;1.42;;;0.70;;
72379;SDS011;60354;47.798;12.472;2022-10-23T14:30:08;1.05;;;0.70;;
72379;SDS011;60354;47.798;12.472;2022-10-23T14:32:34;0.80;;;0.50;;
72379;SDS011;60354;47.798;12.472;2022-10-23T14:35:00;0.70;;;0.50;;
72379;SDS011;60354;47.798;12.472;2022-10-23T14:37:30;3.55;;;0.60;;
72379;SDS011;60354;47.798;12.472;2022-10-23T14:39:57;2.72;;;1.20;;
72379;SDS011;60354;47.798;12.472;2022-10-23T14:42:23;5.28;;;2.40;;
72379;SDS011;60354;47.798;12.472;2022-10-23T14:44:49;3.78;;;1.20;;
72379;SDS011;60354;47.798;12.472;2022-10-23T14:47:15;1.13;;;0.85;;
72379;SDS011;60354;47.798;12.472;2022-10-23T14:49:41;3.75;;;1.08;;
72379;SDS011;60354;47.798;12.472;2022-10-23T14:52:08;2.45;;;0.57;;
72379;SDS011;60354;47.798;12.472;2022-10-23T14:54:33;3.42;;;1.20;;
72379;SDS011;60354;47.798;12.472;2022-10-23T14:57:00;3.08;;;1.45;;
72379;SDS011;60354;47.798;12.472;2022-10-23T14:59:29;4.60;;;1.60;;
72379;SDS011;60354;47.798;12.472;2022-10-23T15:01:54;3.60;;;1.52;;
72379;SDS011;60354;47.798;12.472;2022-10-23T15:04:20;3.30;;;1.63;;
72379;SDS011;60354;47.798;12.472;2022-10-23T15:06:45;1.27;;;1.00;;
72379;SDS011;60354;47.798;12.472;2022-10-23T15:09:11;3.13;;;0.88;;
72379;SDS011;60354;47.798;12.472;2022-10-23T15:11:37;3.30;;;0.80;;
72379;SDS011;60354;47.798;12.472;2022-10-23T15:14:03;2.40;;;0.80;;
72379;SDS011;60354;47.798;12.472;2022-10-23T15:16:29;1.52;;;0.70;;
72379;SDS011;60354;47.798;12.472;2022-10-23T15:18:54;3.08;;;0.90;;
72379;SDS011;60354;47.798;12.472;2022-10-23T15:21:20;1.00;;;0.70;;
72379;SDS011;60354;47.798;12.472;2022-10-23T15:23:45;3.92;;;1.85;;
72379;SDS011;60354;47.798;12.472;2022-10-23T15:26:12;3.50;;;1.20;;
72379;SDS011;60354;47.798;12.472;2022-10-23T15:28:46;2.65;;;1.20;;
72379;SDS011;60354;47.798;12.472;2022-10-23T15:33:53;2.10;;;1.00;;
72379;SDS011;60354;47.798;12.472;2022-10-23T15:36:19;6.07;;;1.02;;
72379;SDS011;60354;47.798;12.472;2022-10-23T15:38:44;5.38;;;1.00;;
72379;SDS011;60354;47.798;12.472;2022-10-23T15:41:14;1.15;;;0.80;;
72379;SDS011;60354;47.798;12.472;2022-10-23T15:43:46;0.75;;;0.60;;
72379;SDS011;60354;47.798;12.472;2022-10-23T15:46:14;4.88;;;0.98;;
72379;SDS011;60354;47.798;12.472;2022-10-23T15:48:39;2.90;;;1.40;;
72379;SDS011;60354;47.798;12.472;2022-10-23T15:51:06;2.00;;;1.30;;
72379;SDS011;60354;47.798;12.472;2022-10-23T15:53:32;3.25;;;1.10;;
72379;SDS011;60354;47.798;12.472;2022-10-23T15:55:57;1.08;;;0.82;;
72379;SDS011;60354;47.798;12.472;2022-10-23T15:58:23;2.00;;;1.15;;
72379;SDS011;60354;47.798;12.472;2022-10-23T16:00:49;3.47;;;1.02;;
72379;SDS011;60354;47.798;12.472;2022-10-23T16:03:14;2.38;;;1.30;;
72379;SDS011;60354;47.798;12.472;2022-10-23T16:05:40;3.53;;;1.48;;
72379;SDS011;60354;47.798;12.472;2022-10-23T16:08:05;2.72;;;1.27;;
72379;SDS011;60354;47.798;12.472;2022-10-23T16:10:31;3.88;;;1.25;;
72379;SDS011;60354;47.798;12.472;2022-10-23T16:12:56;4.47;;;1.77;;
72379;SDS011;60354;47.798;12.472;2022-10-23T16:15:22;3.50;;;1.35;;
72379;SDS011;60354;47.798;12.472;2022-10-23T16:17:47;3.70;;;1.05;;
72379;SDS011;60354;47.798;12.472;2022-10-23T16:20:14;2.42;;;1.15;;
72379;SDS011;60354;47.798;12.472;2022-10-23T16:22:39;2.97;;;1.00;;
72379;SDS011;60354;47.798;12.472;2022-10-23T16:25:05;2.25;;;1.20;;
72379;SDS011;60354;47.798;12.472;2022-10-23T16:27:31;1.10;;;1.00;;
72379;SDS011;60354;47.798;12.472;2022-10-23T16:29:56;1.83;;;1.20;;
72379;SDS011;60354;47.798;12.472;2022-10-23T16:32:21;3.13;;;0.80;;
72379;SDS011;60354;47.798;12.472;2022-10-23T16:34:47;3.20;;;1.10;;
72379;SDS011;60354;47.798;12.472;2022-10-23T16:37:12;3.33;;;1.20;;
72379;SDS011;60354;47.798;12.472;2022-10-23T16:40:00;2.17;;;1.00;;
72379;SDS011;60354;47.798;12.472;2022-10-23T16:42:44;2.92;;;1.60;;
72379;SDS011;60354;47.798;12.472;2022-10-23T16:45:15;1.35;;;0.80;;
72379;SDS011;60354;47.798;12.472;2022-10-23T16:47:40;1.75;;;0.95;;
72379;SDS011;60354;47.798;12.472;2022-10-23T16:50:06;1.83;;;0.98;;
72379;SDS011;60354;47.798;12.472;2022-10-23T16:52:31;1.55;;;0.85;;
72379;SDS011;60354;47.798;12.472;2022-10-23T16:54:58;2.67;;;0.90;;
72379;SDS011;60354;47.798;12.472;2022-10-23T16:57:24;2.95;;;0.90;;
72379;SDS011;60354;47.798;12.472;2022-10-23T16:59:52;1.98;;;0.90;;
72379;SDS011;60354;47.798;12.472;2022-10-23T17:02:18;2.03;;;1.10;;
72379;SDS011;60354;47.798;12.472;2022-10-23T17:04:43;3.30;;;1.40;;
72379;SDS011;60354;47.798;12.472;2022-10-23T17:07:09;5.20;;;1.60;;
72379;SDS011;60354;47.798;12.472;2022-10-23T17:09:37;2.42;;;1.00;;
72379;SDS011;60354;47.798;12.472;2022-10-23T17:12:03;1.83;;;1.00;;
72379;SDS011;60354;47.798;12.472;2022-10-23T17:14:29;2.28;;;1.05;;
72379;SDS011;60354;47.798;12.472;2022-10-23T17:16:56;3.88;;;1.05;;
72379;SDS011;60354;47.798;12.472;2022-10-23T17:19:25;1.55;;;0.80;;